Time;durP1;ratioP1;P1;durP2;ratioP2;P2;SDS_P1;SDS_P2;PMS_P1;PMS_P2;Temp;Humidity;BMP_temperature;BMP_pressure;BME280_temperature;BME280_humidity;BME280_pressure;Samples;Min_cycle;Max_cycle;Signal;HPM_P1;HPM_P2
2021/12/26 00:01:01;;;;;;;122.32;78.90;;;8.40;99.90;;;;;;4957686;28;20090;-87
2021/12/26 00:04:01;;;;;;;125.70;82.70;;;8.50;99.90;;;;;;4999644;28;20022;-85
2021/12/26 00:06:33;;;;;;;118.38;76.95;;;8.40;99.90;;;;;;5000859;28;20381;-88
2021/12/26 00:09:00;;;;;;;134.00;91.43;;;8.40;99.90;;;;;;5045543;28;20182;-86
2021/12/26 00:11:32;;;;;;;142.95;89.88;;;8.50;99.90;;;;;;5042898;28;20389;-86
2021/12/26 00:14:06;;;;;;;131.43;84.82;;;8.60;99.90;;;;;;5035929;28;20018;-86
2021/12/26 00:16:33;;;;;;;107.28;74.93;;;8.50;99.90;;;;;;5039112;28;20427;-86
2021/12/26 00:19:23;;;;;;;101.18;70.90;;;8.60;99.90;;;;;;5065045;28;20036;-87
2021/12/26 00:21:55;;;;;;;97.57;69.80;;;8.70;99.90;;;;;;5071285;28;20617;-86
2021/12/26 00:24:21;;;;;;;92.82;65.43;;;8.80;99.90;;;;;;5072691;28;20025;-86
2021/12/26 00:27:19;;;;;;;100.65;71.15;;;8.80;99.90;;;;;;5086881;28;20080;-86
2021/12/26 00:29:48;;;;;;;94.68;64.55;;;8.90;99.90;;;;;;5078267;28;20051;-86
2021/12/26 00:32:14;;;;;;;94.22;64.40;;;8.90;99.90;;;;;;5076962;28;20024;-86
2021/12/26 00:38:01;;;;;;;111.32;74.80;;;9.00;99.90;;;;;;5078533;28;20077;-84
2021/12/26 00:40:48;;;;;;;93.50;66.47;;;8.90;99.90;;;;;;5079000;28;20394;-85
2021/12/26 00:46:09;;;;;;;95.07;66.57;;;8.90;99.90;;;;;;5064306;28;20495;-85
2021/12/26 00:48:56;;;;;;;87.38;61.17;;;8.90;99.90;;;;;;5070136;28;20085;-85
2021/12/26 00:51:24;;;;;;;89.82;63.65;;;9.00;99.90;;;;;;5063087;28;20032;-85
2021/12/26 00:54:12;;;;;;;89.22;62.90;;;9.00;99.90;;;;;;5088386;28;20033;-84
2021/12/26 00:56:37;;;;;;;84.40;59.63;;;9.00;99.90;;;;;;5078937;28;20028;-85
2021/12/26 00:59:04;;;;;;;81.30;58.38;;;9.10;99.90;;;;;;5072182;28;20035;-83
2021/12/26 01:01:30;;;;;;;89.03;61.15;;;9.10;99.90;;;;;;5083486;28;20032;-85
2021/12/26 01:04:30;;;;;;;87.65;61.40;;;9.20;99.90;;;;;;5057062;28;20025;-85
2021/12/26 01:17:21;;;;;;;77.53;54.90;;;9.00;99.90;;;;;;4959121;28;20056;-85
2021/12/26 01:23:36;;;;;;;53.03;43.20;;;9.10;99.90;;;;;;5081643;28;20036;-86
2021/12/26 01:26:08;;;;;;;63.40;47.00;;;9.20;99.90;;;;;;5081095;28;20021;-83
2021/12/26 01:28:34;;;;;;;65.72;49.88;;;9.20;99.90;;;;;;5073794;28;20414;-86
2021/12/26 01:34:15;;;;;;;41.17;34.03;;;9.20;99.90;;;;;;5090257;28;20038;-85
2021/12/26 01:40:30;;;;;;;46.88;38.03;;;9.20;99.90;;;;;;5085729;28;20106;-85
2021/12/26 02:13:50;;;;;;;48.33;38.13;;;9.00;99.90;;;;;;4915863;28;20831;-85
2021/12/26 02:16:54;;;;;;;67.82;49.47;;;9.10;99.90;;;;;;4920269;29;20124;-85
2021/12/26 02:23:04;;;;;;;51.55;43.58;;;9.10;99.90;;;;;;4893634;29;20080;-85
2021/12/26 02:32:51;;;;;;;;;;;;;;;;;;;;;
2021/12/26 02:38:59;;;;;;;52.35;43.53;;;9.20;99.90;;;;;;5004640;28;20044;-84
2021/12/26 02:48:52;;;;;;;50.80;37.75;;;9.20;99.90;;;;;;4912989;29;20043;-85
2021/12/26 03:16:45;;;;;;;;;;;;;;;;;;;;;
2021/12/26 03:20:01;;;;;;;140.18;74.78;;;9.00;99.90;;;;;;4807591;29;20058;-85
2021/12/26 03:30:54;;;;;;;;;;;;;;;;;;;;;
2021/12/26 04:04:22;;;;;;;333.52;165.43;;;8.20;99.90;;;;;;4944408;28;20404;-90
2021/12/26 04:06:54;;;;;;;340.67;164.98;;;8.10;99.90;;;;;;5001170;28;20034;-89
2021/12/26 04:10:18;;;;;;;354.45;174.32;;;8.10;99.90;;;;;;5036842;28;20052;-88
2021/12/26 04:13:08;;;;;;;346.15;175.18;;;8.10;99.90;;;;;;5066891;28;20067;-89
2021/12/26 04:16:32;;;;;;;353.58;176.45;;;8.10;99.90;;;;;;5077862;28;20031;-87
2021/12/26 04:26:29;;;;;;;336.55;170.75;;;8.00;99.90;;;;;;5023556;28;20049;-88
2021/12/26 05:46:16;;;;;;;138.93;95.78;;;7.80;99.90;;;;;;4829383;29;20079;-92
2021/12/26 06:16:47;;;;;;;76.55;59.63;;;8.20;99.90;;;;;;4841107;29;20041;-92
2021/12/26 06:23:13;;;;;;;;;;;;;;;;;;;;;
2021/12/26 06:25:40;;;;;;;75.00;56.15;;;8.10;99.90;;;;;;5046720;28;20040;-92
2021/12/26 06:28:06;;;;;;;72.88;55.42;;;8.10;99.90;;;;;;5053781;28;20033;-92
2021/12/26 06:34:41;;;;;;;81.20;58.22;;;8.10;99.90;;;;;;4971388;28;20613;-91
2021/12/26 06:41:40;;;;;;;;;;;;;;;;;;;;;
2021/12/26 06:44:07;;;;;;;99.78;72.20;;;7.90;99.90;;;;;;4912073;29;20042;-92
2021/12/26 06:50:45;;;;;;;89.75;65.97;;;7.80;99.90;;;;;;4901764;29;20529;-91
2021/12/26 06:53:24;;;;;;;102.85;76.25;;;7.80;99.90;;;;;;4896042;29;20100;-91
2021/12/26 06:59:54;;;;;;;107.18;76.15;;;7.80;99.90;;;;;;4855714;29;20543;-91
2021/12/26 07:15:40;;;;;;;111.38;78.47;;;7.70;99.90;;;;;;4894658;29;19915;-91
2021/12/26 07:18:59;;;;;;;105.05;74.97;;;7.80;99.90;;;;;;4903607;29;20110;-91
2021/12/26 07:35:50;;;;;;;;;;;;;;;;;;;;;
2021/12/26 07:42:01;;;;;;;130.15;80.72;;;8.00;99.90;;;;;;4971982;28;20522;-91
2021/12/26 07:48:12;;;;;;;99.13;65.47;;;8.10;99.90;;;;;;4990043;28;20041;-92
2021/12/26 07:50:38;;;;;;;85.65;62.97;;;8.40;99.90;;;;;;4973966;28;20051;-91
2021/12/26 07:53:30;;;;;;;82.30;60.63;;;8.50;99.90;;;;;;4987959;28;20477;-91
2021/12/26 07:56:09;;;;;;;88.38;60.65;;;8.70;99.90;;;;;;5022396;28;20043;-90
2021/12/26 07:58:46;;;;;;;84.47;59.90;;;8.80;99.90;;;;;;5053520;28;20260;-92
2021/12/26 08:01:20;;;;;;;82.60;60.13;;;8.80;99.90;;;;;;5045506;28;20025;-92
2021/12/26 08:06:46;;;;;;;66.55;48.90;;;8.80;99.90;;;;;;5071400;28;20039;-92
2021/12/26 08:09:12;;;;;;;63.10;46.65;;;8.90;99.90;;;;;;5054059;28;20218;-92
2021/12/26 08:11:49;;;;;;;65.07;48.35;;;8.90;99.90;;;;;;5037681;28;20060;-92
2021/12/26 08:14:23;;;;;;;64.95;49.45;;;9.00;99.90;;;;;;5042148;28;20446;-92
2021/12/26 08:17:05;;;;;;;60.85;46.13;;;8.90;99.90;;;;;;5056422;28;20060;-92
2021/12/26 08:19:46;;;;;;;;;;;;;;;;;;;;;
2021/12/26 08:22:18;;;;;;;57.70;45.88;;;8.90;99.90;;;;;;5067507;28;20045;-91
2021/12/26 08:24:43;;;;;;;28.33;20.52;;;9.00;99.90;;;;;;5079886;28;20029;-90
2021/12/26 08:27:09;;;;;;;21.67;16.88;;;9.00;99.90;;;;;;5081171;28;20437;-90
2021/12/26 08:29:41;;;;;;;24.17;18.65;;;9.00;99.90;;;;;;5075348;28;20040;-91
2021/12/26 08:32:19;;;;;;;6.28;4.88;;;8.90;99.90;;;;;;5081966;28;20016;-91
2021/12/26 08:34:46;;;;;;;3.72;3.35;;;8.90;99.90;;;;;;5088065;28;20067;-91
2021/12/26 08:37:16;;;;;;;1.83;1.67;;;8.80;99.90;;;;;;5064945;28;20074;-90
2021/12/26 08:39:44;;;;;;;3.10;2.25;;;8.70;99.90;;;;;;5070854;28;20028;-91
2021/12/26 08:42:12;;;;;;;2.35;1.77;;;8.70;99.90;;;;;;5080144;28;20028;-89
2021/12/26 08:44:41;;;;;;;5.55;2.10;;;8.70;99.90;;;;;;5069172;28;20029;-90
2021/12/26 08:47:16;;;;;;;0.80;0.80;;;8.70;99.90;;;;;;5058299;28;20029;-89
2021/12/26 08:49:44;;;;;;;0.90;0.70;;;8.70;99.90;;;;;;5079542;28;20076;-89
2021/12/26 08:52:11;;;;;;;0.70;0.70;;;8.70;99.90;;;;;;5058711;28;20025;-90
2021/12/26 08:54:39;;;;;;;0.80;0.75;;;8.70;99.90;;;;;;5060912;28;20036;-90
2021/12/26 08:57:06;;;;;;;0.68;0.60;;;8.70;99.90;;;;;;5066014;28;20475;-89
2021/12/26 08:59:36;;;;;;;0.40;0.40;;;8.80;99.90;;;;;;5058932;28;20299;-88
2021/12/26 09:02:06;;;;;;;1.15;0.52;;;8.80;99.90;;;;;;5086853;28;20098;-90
2021/12/26 09:04:33;;;;;;;1.05;0.60;;;8.80;99.90;;;;;;5072284;28;20029;-90
2021/12/26 09:07:03;;;;;;;0.88;0.65;;;8.90;99.90;;;;;;5067047;28;20031;-87
2021/12/26 09:09:29;;;;;;;0.88;0.70;;;8.90;99.90;;;;;;5082295;28;20044;-89
2021/12/26 09:12:01;;;;;;;0.77;0.77;;;9.00;99.90;;;;;;5087004;28;20028;-91
2021/12/26 09:14:29;;;;;;;0.70;0.63;;;9.00;99.90;;;;;;5093149;28;20032;-87
2021/12/26 09:16:56;;;;;;;0.70;0.70;;;8.90;99.90;;;;;;5086113;28;20075;-87
2021/12/26 09:19:48;;;;;;;0.45;0.45;;;9.00;99.90;;;;;;5073358;28;20027;-88
2021/12/26 09:22:17;;;;;;;4.15;2.80;;;9.00;99.90;;;;;;5092634;28;20047;-86
2021/12/26 09:24:45;;;;;;;1.20;0.88;;;9.10;99.90;;;;;;5100011;28;20024;-87
2021/12/26 09:27:12;;;;;;;1.92;0.82;;;9.10;99.90;;;;;;5087428;28;20054;-86
2021/12/26 09:29:38;;;;;;;1.15;0.95;;;9.10;99.90;;;;;;5086811;28;20032;-89
2021/12/26 09:32:05;;;;;;;1.65;0.93;;;9.20;99.90;;;;;;5065487;28;20063;-89
2021/12/26 09:34:33;;;;;;;2.03;1.30;;;9.20;99.90;;;;;;5065251;28;20032;-88
2021/12/26 09:37:00;;;;;;;0.80;0.80;;;9.20;99.90;;;;;;5072233;28;20035;-88
2021/12/26 09:39:26;;;;;;;1.15;1.05;;;9.20;99.90;;;;;;5060482;28;20027;-89
2021/12/26 09:41:52;;;;;;;2.78;1.00;;;9.30;99.90;;;;;;5085426;28;20039;-84
2021/12/26 09:44:19;;;;;;;2.15;1.42;;;9.40;99.90;;;;;;5070985;28;20036;-87
2021/12/26 09:46:45;;;;;;;1.65;1.20;;;9.40;99.90;;;;;;5073952;28;20027;-87
2021/12/26 09:49:12;;;;;;;1.70;1.20;;;9.40;99.90;;;;;;5086471;28;20040;-85
2021/12/26 09:51:38;;;;;;;1.30;1.05;;;9.50;99.90;;;;;;5085135;28;20024;-87
2021/12/26 09:54:05;;;;;;;4.45;0.95;;;9.50;99.90;;;;;;5087364;28;20039;-87
2021/12/26 09:56:40;;;;;;;1.10;0.70;;;9.50;99.90;;;;;;5066870;28;20417;-86
2021/12/26 09:59:23;;;;;;;1.30;1.20;;;9.60;99.90;;;;;;5089602;28;20390;-88
2021/12/26 10:01:54;;;;;;;2.00;1.60;;;9.60;99.90;;;;;;5093760;28;20073;-86
2021/12/26 10:04:34;;;;;;;3.38;2.08;;;9.60;99.90;;;;;;5071999;28;20028;-84
2021/12/26 10:07:13;;;;;;;0.82;0.70;;;9.70;99.90;;;;;;5090954;28;20082;-87
2021/12/26 10:09:42;;;;;;;0.90;0.80;;;9.70;99.90;;;;;;5060182;28;20090;-87
2021/12/26 10:12:12;;;;;;;1.33;1.23;;;9.70;99.90;;;;;;5083991;28;20530;-88
2021/12/26 10:14:50;;;;;;;1.52;1.08;;;9.80;99.90;;;;;;5074087;28;20038;-85
2021/12/26 10:17:26;;;;;;;0.90;0.90;;;9.80;99.90;;;;;;5080219;28;20028;-87
2021/12/26 10:20:02;;;;;;;1.85;1.05;;;9.90;99.90;;;;;;5092478;28;20496;-86
2021/12/26 10:22:36;;;;;;;0.80;0.80;;;10.00;99.90;;;;;;5093005;28;20044;-85
2021/12/26 10:25:19;;;;;;;0.75;0.75;;;10.10;99.90;;;;;;5086252;28;20064;-86
2021/12/26 10:28:08;;;;;;;7.45;2.08;;;10.10;99.90;;;;;;5076718;28;20026;-88
2021/12/26 10:30:48;;;;;;;3.42;1.20;;;10.10;99.90;;;;;;5083355;28;20496;-85
2021/12/26 10:33:17;;;;;;;1.80;1.50;;;10.20;99.90;;;;;;5091615;28;20031;-86
2021/12/26 10:35:43;;;;;;;1.52;1.42;;;10.20;99.90;;;;;;5090164;28;20020;-86
2021/12/26 10:38:15;;;;;;;2.63;1.70;;;10.20;99.90;;;;;;5093039;28;20024;-86
2021/12/26 10:40:48;;;;;;;1.30;1.20;;;10.30;99.90;;;;;;5079895;28;20068;-85
2021/12/26 10:43:14;;;;;;;4.78;2.97;;;10.20;99.90;;;;;;5092794;28;20024;-86
2021/12/26 10:46:03;;;;;;;2.45;1.00;;;10.20;99.90;;;;;;5083367;28;20031;-91
2021/12/26 10:48:32;;;;;;;3.42;1.30;;;10.30;99.90;;;;;;5074634;28;20081;-87
2021/12/26 10:50:58;;;;;;;0.73;0.73;;;10.20;99.90;;;;;;5083999;28;20614;-87
2021/12/26 10:53:24;;;;;;;1.42;0.90;;;10.30;99.90;;;;;;5054846;28;20035;-86
2021/12/26 10:55:55;;;;;;;0.68;0.68;;;10.30;99.90;;;;;;5080966;28;20043;-83
2021/12/26 10:58:23;;;;;;;1.05;1.00;;;10.40;99.90;;;;;;5074015;28;20271;-82
2021/12/26 11:00:56;;;;;;;1.33;1.08;;;10.40;99.90;;;;;;5069453;28;20024;-83
2021/12/26 11:03:23;;;;;;;;;;;10.40;99.90;;;;;;5092828;28;20028;-83
2021/12/26 11:05:55;;;;;;;1.25;0.98;;;10.50;99.90;;;;;;5084274;28;19908;-85
2021/12/26 11:08:29;;;;;;;;;;;10.50;99.90;;;;;;5074135;28;20024;-83
2021/12/26 11:17:36;;;;;;;3.90;1.00;;;10.50;99.90;;;;;;5069361;28;20424;-81
2021/12/26 11:20:11;;;;;;;1.20;1.02;;;10.60;99.90;;;;;;5064735;28;20052;-86
2021/12/26 11:22:39;;;;;;;1.05;0.95;;;10.60;99.90;;;;;;5065548;28;20021;-87
2021/12/26 11:25:05;;;;;;;3.10;1.15;;;10.70;99.90;;;;;;5058079;28;20021;-86
2021/12/26 11:27:31;;;;;;;1.10;0.80;;;10.80;99.90;;;;;;5055673;28;20036;-85
2021/12/26 11:30:10;;;;;;;1.10;0.75;;;10.70;99.90;;;;;;5056426;28;20035;-83
2021/12/26 11:32:43;;;;;;;1.38;0.90;;;10.80;99.90;;;;;;5067087;28;20055;-85
2021/12/26 11:35:13;;;;;;;1.27;0.90;;;10.80;99.90;;;;;;5066846;28;20033;-86
2021/12/26 11:37:52;;;;;;;3.80;1.10;;;10.80;99.90;;;;;;5068030;28;20111;-85
2021/12/26 11:40:18;;;;;;;1.33;0.95;;;10.90;99.90;;;;;;5067172;28;20386;-85
2021/12/26 11:43:31;;;;;;;0.90;0.80;;;10.90;99.90;;;;;;5067843;28;20021;-85
2021/12/26 11:46:35;;;;;;;2.83;0.82;;;10.90;99.90;;;;;;5050122;28;20103;-85
2021/12/26 11:49:42;;;;;;;1.05;0.95;;;10.90;99.90;;;;;;5065564;28;20092;-84
2021/12/26 11:52:59;;;;;;;0.80;0.80;;;10.90;99.90;;;;;;5059356;28;20052;-84
2021/12/26 11:55:49;;;;;;;0.80;0.80;;;11.00;99.90;;;;;;5061948;28;20048;-85
2021/12/26 11:58:28;;;;;;;1.15;0.98;;;11.00;99.90;;;;;;5047711;28;20026;-84
2021/12/26 12:00:56;;;;;;;0.85;0.77;;;11.00;99.90;;;;;;5066016;28;20024;-84
2021/12/26 12:03:25;;;;;;;3.67;0.80;;;11.00;99.90;;;;;;5067790;28;20025;-85
2021/12/26 12:06:06;;;;;;;2.58;0.82;;;11.00;99.90;;;;;;5066424;28;20044;-90
2021/12/26 12:08:38;;;;;;;1.40;1.00;;;11.00;99.90;;;;;;5067088;28;20078;-85
2021/12/26 12:14:00;;;;;;;0.95;0.90;;;11.10;99.90;;;;;;5056234;28;20479;-87
2021/12/26 12:16:38;;;;;;;1.27;0.90;;;11.00;99.90;;;;;;5061670;28;20053;-89
2021/12/26 12:19:10;;;;;;;1.05;1.05;;;11.00;99.90;;;;;;5071016;28;20074;-87
2021/12/26 12:21:47;;;;;;;1.57;1.00;;;11.00;99.90;;;;;;5066071;28;20451;-85
2021/12/26 12:24:29;;;;;;;0.70;0.70;;;10.90;99.90;;;;;;5064866;28;20040;-87
2021/12/26 12:27:08;;;;;;;1.02;0.90;;;10.90;99.90;;;;;;5063294;28;20554;-88
2021/12/26 12:29:46;;;;;;;1.35;1.00;;;10.90;99.90;;;;;;5057545;28;20052;-87
2021/12/26 12:32:14;;;;;;;1.00;0.80;;;11.00;99.90;;;;;;5054197;28;20017;-86
2021/12/26 12:34:56;;;;;;;1.35;0.88;;;10.90;99.90;;;;;;5052974;28;20509;-88
2021/12/26 12:37:47;;;;;;;1.25;1.15;;;10.90;99.90;;;;;;5052808;28;20087;-87
2021/12/26 12:40:33;;;;;;;2.25;1.02;;;10.90;99.90;;;;;;5051777;28;20590;-87
2021/12/26 12:43:12;;;;;;;1.23;0.90;;;10.90;99.90;;;;;;5053520;28;20112;-88
2021/12/26 12:45:56;;;;;;;0.82;0.75;;;10.80;99.90;;;;;;5052174;28;20036;-86
2021/12/26 12:48:30;;;;;;;1.13;0.90;;;10.80;99.90;;;;;;5053685;28;20021;-86
2021/12/26 12:51:02;;;;;;;2.88;0.90;;;10.70;99.90;;;;;;5054138;28;20033;-89
2021/12/26 12:53:44;;;;;;;1.17;1.00;;;10.80;99.90;;;;;;5053354;28;20024;-87
2021/12/26 12:56:30;;;;;;;1.50;0.82;;;10.70;99.90;;;;;;5050945;28;20453;-86
2021/12/26 12:59:20;;;;;;;1.10;1.00;;;10.70;99.90;;;;;;5052407;28;20020;-87
2021/12/26 13:02:05;;;;;;;1.23;1.00;;;10.70;99.90;;;;;;5051867;28;20090;-85
2021/12/26 13:04:46;;;;;;;1.50;0.98;;;10.60;99.90;;;;;;5052210;28;20021;-88
2021/12/26 13:07:19;;;;;;;1.02;1.00;;;10.60;99.90;;;;;;5053501;28;20017;-88
2021/12/26 13:09:58;;;;;;;2.70;1.00;;;10.50;99.90;;;;;;5051108;28;20028;-88
2021/12/26 13:12:25;;;;;;;1.42;0.90;;;10.50;99.90;;;;;;5061920;28;20024;-88
2021/12/26 13:14:55;;;;;;;1.92;1.00;;;10.50;99.90;;;;;;5053499;28;20032;-86
2021/12/26 13:17:37;;;;;;;2.17;1.60;;;10.40;99.90;;;;;;5043916;28;20168;-87
2021/12/26 13:20:17;;;;;;;2.30;1.63;;;10.40;99.90;;;;;;5043050;28;20056;-86
2021/12/26 13:22:44;;;;;;;1.92;1.40;;;10.30;99.90;;;;;;5030554;28;20125;-88
2021/12/26 13:25:14;;;;;;;1.40;1.30;;;10.30;99.90;;;;;;5030665;28;20022;-87
2021/12/26 13:27:42;;;;;;;1.23;1.10;;;10.30;99.90;;;;;;5030619;28;20121;-86
2021/12/26 13:30:08;;;;;;;3.78;1.00;;;10.30;99.90;;;;;;5036004;28;20029;-88
2021/12/26 13:32:40;;;;;;;0.80;0.80;;;10.30;99.90;;;;;;5050013;28;20041;-87
2021/12/26 13:35:15;;;;;;;1.67;1.45;;;10.30;99.90;;;;;;5040273;28;20121;-87
2021/12/26 13:37:44;;;;;;;1.52;1.17;;;10.20;99.90;;;;;;5045630;28;20494;-87
2021/12/26 13:40:16;;;;;;;0.90;0.90;;;10.20;99.90;;;;;;5041183;28;20018;-87
2021/12/26 13:42:49;;;;;;;;;;;10.20;99.90;;;;;;5046848;28;20407;-87
2021/12/26 13:45:15;;;;;;;4.40;1.08;;;10.10;99.90;;;;;;5041468;28;19920;-87
2021/12/26 13:47:42;;;;;;;1.33;1.10;;;10.10;99.90;;;;;;5048291;28;20037;-88
2021/12/26 13:50:12;;;;;;;1.35;1.25;;;10.10;99.90;;;;;;5045256;28;20035;-89
2021/12/26 13:52:38;;;;;;;2.72;1.30;;;10.10;99.90;;;;;;5034424;28;20110;-87
2021/12/26 13:55:05;;;;;;;2.92;1.13;;;10.10;99.90;;;;;;5035490;28;20061;-86
2021/12/26 13:57:31;;;;;;;1.42;1.10;;;10.10;99.90;;;;;;5030755;28;20025;-89
2021/12/26 14:00:02;;;;;;;1.17;1.10;;;10.00;99.90;;;;;;5035169;28;20035;-88
2021/12/26 14:02:47;;;;;;;1.15;1.08;;;10.00;99.90;;;;;;5048604;28;20751;-88
2021/12/26 14:05:20;;;;;;;1.67;1.10;;;10.00;99.90;;;;;;5044093;28;20028;-86
2021/12/26 14:08:28;;;;;;;1.58;1.08;;;10.00;99.90;;;;;;5049975;28;20025;-87
2021/12/26 14:11:07;;;;;;;1.65;1.05;;;9.90;99.90;;;;;;5036101;28;20556;-88
2021/12/26 14:13:50;;;;;;;1.00;0.90;;;9.90;99.90;;;;;;5011006;28;20026;-87
2021/12/26 14:16:28;;;;;;;1.83;1.05;;;9.80;99.90;;;;;;5035953;28;20530;-88
2021/12/26 14:19:16;;;;;;;1.20;1.08;;;9.80;99.90;;;;;;5046370;28;20021;-88
2021/12/26 14:21:50;;;;;;;1.30;1.10;;;9.80;99.90;;;;;;5036746;28;20479;-88
2021/12/26 14:24:24;;;;;;;2.40;1.40;;;9.70;99.90;;;;;;5031502;28;20593;-87
2021/12/26 14:26:57;;;;;;;2.35;1.13;;;9.70;99.90;;;;;;5039234;28;20088;-89
2021/12/26 14:29:24;;;;;;;1.42;1.20;;;9.70;99.90;;;;;;5031812;28;20025;-88
2021/12/26 14:32:01;;;;;;;1.40;1.20;;;9.70;99.90;;;;;;5048357;28;20048;-88
2021/12/26 14:34:32;;;;;;;1.10;1.00;;;9.60;99.90;;;;;;5045119;28;20530;-88
2021/12/26 14:37:09;;;;;;;1.75;0.90;;;9.60;99.90;;;;;;5037855;28;20037;-87
2021/12/26 14:39:44;;;;;;;1.63;1.23;;;9.60;99.90;;;;;;5033350;28;20055;-88
2021/12/26 14:42:33;;;;;;;1.40;1.10;;;9.60;99.90;;;;;;5032610;28;20051;-87
2021/12/26 14:45:06;;;;;;;1.35;1.13;;;9.60;99.90;;;;;;5033695;28;20178;-88
2021/12/26 14:47:42;;;;;;;1.08;0.98;;;9.50;99.90;;;;;;5032390;28;20440;-88
2021/12/26 14:50:17;;;;;;;1.13;1.05;;;9.50;99.90;;;;;;5036748;28;20100;-87
2021/12/26 14:52:59;;;;;;;1.33;1.20;;;9.40;99.90;;;;;;5049990;28;20037;-88
2021/12/26 14:55:29;;;;;;;2.50;1.50;;;9.40;99.90;;;;;;5037545;28;20052;-87
2021/12/26 14:58:18;;;;;;;1.55;1.17;;;9.40;99.90;;;;;;5028740;28;20279;-87
2021/12/26 15:00:46;;;;;;;1.52;1.33;;;9.40;99.90;;;;;;5038203;28;20036;-87
2021/12/26 15:03:15;;;;;;;1.25;1.10;;;9.30;99.90;;;;;;5027975;28;20044;-87
2021/12/26 15:05:41;;;;;;;1.63;1.20;;;9.30;99.90;;;;;;5036683;28;20030;-87
2021/12/26 15:08:12;;;;;;;1.73;1.30;;;9.30;99.90;;;;;;5029338;28;20399;-87
2021/12/26 15:10:46;;;;;;;1.15;1.05;;;9.30;99.90;;;;;;5039164;28;20116;-87
2021/12/26 15:13:22;;;;;;;1.48;1.20;;;9.30;99.90;;;;;;5028900;28;20075;-88
2021/12/26 15:15:52;;;;;;;1.85;1.13;;;9.30;99.90;;;;;;5035960;28;20415;-87
2021/12/26 15:18:22;;;;;;;1.65;1.55;;;9.30;99.90;;;;;;5029359;28;20029;-86
2021/12/26 15:20:56;;;;;;;1.95;1.63;;;9.30;99.90;;;;;;5032639;28;20022;-87
2021/12/26 15:23:24;;;;;;;1.58;1.40;;;9.20;99.90;;;;;;5028994;28;20149;-88
2021/12/26 15:25:57;;;;;;;2.15;1.15;;;9.20;99.90;;;;;;5032522;28;20376;-87
2021/12/26 15:28:32;;;;;;;2.28;1.20;;;9.20;99.90;;;;;;5029632;28;20025;-87
2021/12/26 15:31:10;;;;;;;1.52;1.30;;;9.20;99.90;;;;;;5034901;28;20029;-88
2021/12/26 15:33:48;;;;;;;3.83;1.10;;;9.10;99.90;;;;;;5031710;28;20438;-88
2021/12/26 15:36:18;;;;;;;4.03;1.48;;;9.20;99.90;;;;;;5039010;28;20060;-86
2021/12/26 15:38:46;;;;;;;1.45;1.35;;;9.20;99.90;;;;;;5050150;28;20029;-87
2021/12/26 15:41:33;;;;;;;1.58;1.17;;;9.20;99.90;;;;;;5041086;28;20023;-88
2021/12/26 15:44:01;;;;;;;2.25;1.20;;;9.10;99.90;;;;;;5044222;28;20030;-86
2021/12/26 15:46:28;;;;;;;1.85;1.40;;;9.10;99.90;;;;;;5036887;28;20018;-88
2021/12/26 15:48:57;;;;;;;2.25;1.65;;;9.10;99.90;;;;;;5029183;28;20022;-89
2021/12/26 15:51:26;;;;;;;6.53;3.42;;;9.10;99.90;;;;;;5037334;28;20060;-89
2021/12/26 15:53:52;;;;;;;3.10;1.92;;;9.00;99.90;;;;;;5029534;28;20030;-88
2021/12/26 15:56:18;;;;;;;1.45;1.35;;;9.00;99.90;;;;;;5038915;28;20041;-86
2021/12/26 15:58:44;;;;;;;2.05;1.38;;;9.10;99.90;;;;;;5046350;28;20028;-88
2021/12/26 16:01:10;;;;;;;1.42;1.33;;;9.00;99.90;;;;;;5039607;28;20104;-87
2021/12/26 16:03:36;;;;;;;4.43;1.30;;;9.00;99.90;;;;;;5030609;28;20040;-88
2021/12/26 16:06:02;;;;;;;1.63;1.40;;;9.00;99.90;;;;;;5041107;28;20025;-87
2021/12/26 16:08:29;;;;;;;1.42;1.33;;;8.90;99.90;;;;;;5052365;28;20529;-87
2021/12/26 16:10:55;;;;;;;1.48;1.27;;;8.90;99.90;;;;;;5043360;28;20195;-88
2021/12/26 16:13:21;;;;;;;1.60;1.38;;;8.90;99.90;;;;;;5032645;28;20033;-86
2021/12/26 16:15:51;;;;;;;5.35;1.65;;;8.90;99.90;;;;;;5041117;28;20053;-86
2021/12/26 16:18:20;;;;;;;2.40;1.77;;;8.90;99.90;;;;;;5032365;28;20037;-89
2021/12/26 16:20:50;;;;;;;4.30;1.67;;;8.90;99.90;;;;;;5044321;28;20053;-86
2021/12/26 16:23:17;;;;;;;1.88;1.40;;;8.90;99.90;;;;;;5052117;28;20486;-88
2021/12/26 16:25:43;;;;;;;7.40;1.60;;;8.80;99.90;;;;;;5038884;28;20033;-87
2021/12/26 16:28:10;;;;;;;1.75;1.63;;;8.80;99.90;;;;;;5051628;28;20032;-87
2021/12/26 16:30:38;;;;;;;2.05;1.80;;;8.80;99.90;;;;;;5036857;28;20025;-88
2021/12/26 16:33:09;;;;;;;4.75;2.08;;;8.70;99.90;;;;;;5053167;28;20025;-88
2021/12/26 16:35:37;;;;;;;3.30;1.70;;;8.70;99.90;;;;;;5039224;28;20044;-88
2021/12/26 16:38:03;;;;;;;2.22;1.90;;;8.60;99.90;;;;;;5012603;28;20120;-86
2021/12/26 16:40:29;;;;;;;1.67;1.50;;;8.50;99.90;;;;;;5037942;28;20383;-90
2021/12/26 16:43:00;;;;;;;2.38;1.67;;;8.50;99.90;;;;;;5032263;28;20037;-87
2021/12/26 16:45:26;;;;;;;3.13;1.63;;;8.50;99.90;;;;;;5050552;28;20044;-88
2021/12/26 16:47:53;;;;;;;2.42;1.77;;;8.40;99.90;;;;;;5038463;28;20029;-91
2021/12/26 16:50:24;;;;;;;2.47;1.52;;;8.40;99.90;;;;;;5047004;28;20108;-93
2021/12/26 16:52:57;;;;;;;5.93;3.38;;;8.40;99.90;;;;;;5053941;28;20037;-92
2021/12/26 16:55:25;;;;;;;3.30;1.83;;;8.40;99.90;;;;;;5048166;28;20056;-90
2021/12/26 16:57:54;;;;;;;9.15;4.55;;;8.40;99.90;;;;;;5056837;28;20542;-90
2021/12/26 17:00:21;;;;;;;2.03;1.50;;;8.40;99.90;;;;;;5055338;28;20040;-93
2021/12/26 17:02:47;;;;;;;2.65;2.22;;;8.40;99.90;;;;;;5039593;28;20533;-86
2021/12/26 17:05:17;;;;;;;1.75;1.63;;;8.30;99.90;;;;;;5039690;28;20738;-92
2021/12/26 17:07:44;;;;;;;2.22;1.48;;;8.30;99.90;;;;;;5053189;28;20483;-93
2021/12/26 17:10:19;;;;;;;5.20;2.85;;;8.30;99.90;;;;;;5055099;28;20089;-90
2021/12/26 17:12:45;;;;;;;2.65;1.95;;;8.30;99.90;;;;;;5046901;28;20055;-93
2021/12/26 17:15:11;;;;;;;2.85;2.30;;;8.30;99.90;;;;;;5048261;28;20079;-89
2021/12/26 17:17:37;;;;;;;4.10;2.17;;;8.30;99.90;;;;;;5055471;28;20120;-88
2021/12/26 17:20:05;;;;;;;4.45;3.13;;;8.20;99.90;;;;;;5044565;28;20033;-93
2021/12/26 17:22:31;;;;;;;5.90;2.17;;;8.10;99.90;;;;;;5039262;28;20053;-90
2021/12/26 17:24:57;;;;;;;4.10;2.17;;;8.20;99.90;;;;;;5034175;28;20033;-91
2021/12/26 17:27:29;;;;;;;5.93;3.22;;;8.20;99.90;;;;;;5045365;28;20099;-90
2021/12/26 17:30:04;;;;;;;4.32;1.73;;;8.20;99.90;;;;;;5049469;28;20067;-90
2021/12/26 17:32:33;;;;;;;3.58;2.00;;;8.10;99.90;;;;;;5033185;28;20092;-90
2021/12/26 17:34:58;;;;;;;4.28;2.95;;;8.10;99.90;;;;;;5046338;28;20026;-90
2021/12/26 17:37:25;;;;;;;2.45;2.08;;;8.10;99.90;;;;;;5053187;28;20115;-90
2021/12/26 17:39:51;;;;;;;2.67;1.60;;;8.20;99.90;;;;;;5052681;28;20412;-91
2021/12/26 17:42:17;;;;;;;3.17;1.80;;;8.10;99.90;;;;;;5039213;28;20057;-89
2021/12/26 17:44:46;;;;;;;1.63;1.50;;;8.10;99.90;;;;;;5036422;28;20029;-91
2021/12/26 17:47:15;;;;;;;1.95;1.75;;;8.10;99.90;;;;;;5048626;28;20021;-90
2021/12/26 17:49:44;;;;;;;3.50;2.03;;;8.10;99.90;;;;;;5041862;28;20026;-89
2021/12/26 17:52:09;;;;;;;2.45;1.70;;;8.10;99.90;;;;;;5046158;28;20049;-90
2021/12/26 17:54:35;;;;;;;1.77;1.60;;;8.10;99.90;;;;;;5044130;28;20119;-90
2021/12/26 17:57:01;;;;;;;2.13;1.92;;;8.10;99.90;;;;;;5042407;28;20053;-91
2021/12/26 17:59:27;;;;;;;3.53;2.20;;;8.10;99.90;;;;;;5036282;28;20547;-90
2021/12/26 18:02:02;;;;;;;2.65;1.95;;;8.10;99.90;;;;;;5036350;28;20479;-90
2021/12/26 18:04:30;;;;;;;2.17;1.73;;;8.10;99.90;;;;;;5025241;28;20033;-91
2021/12/26 18:07:05;;;;;;;2.88;2.08;;;8.10;99.90;;;;;;5035544;28;20116;-91
2021/12/26 18:09:31;;;;;;;4.35;1.70;;;8.10;99.90;;;;;;5035007;28;20030;-91
2021/12/26 18:11:57;;;;;;;2.85;2.03;;;8.20;99.90;;;;;;5052363;28;20486;-90
2021/12/26 18:14:28;;;;;;;5.25;3.55;;;8.20;99.90;;;;;;5047986;28;20671;-93
2021/12/26 18:16:54;;;;;;;4.90;2.30;;;8.20;99.90;;;;;;5042418;28;20538;-91
2021/12/26 18:19:20;;;;;;;2.42;1.77;;;8.20;99.90;;;;;;5033152;28;20033;-91
2021/12/26 18:21:45;;;;;;;1.80;1.63;;;8.20;99.90;;;;;;5043027;28;20029;-92
2021/12/26 18:24:11;;;;;;;2.85;2.08;;;8.20;99.90;;;;;;5038770;28;20033;-92
2021/12/26 18:26:37;;;;;;;2.33;1.70;;;8.20;99.90;;;;;;5043482;28;20035;-91
2021/12/26 18:29:03;;;;;;;1.92;1.73;;;8.20;99.90;;;;;;5035328;28;20743;-91
2021/12/26 18:31:31;;;;;;;1.77;1.63;;;8.20;99.90;;;;;;5049036;28;20036;-90
2021/12/26 18:33:58;;;;;;;1.95;1.75;;;8.20;99.90;;;;;;5050413;28;20021;-91
2021/12/26 18:36:25;;;;;;;1.98;1.77;;;8.20;99.90;;;;;;5044697;28;20479;-92
2021/12/26 18:38:51;;;;;;;2.08;1.85;;;8.20;99.90;;;;;;5029145;28;20116;-90
2021/12/26 18:41:17;;;;;;;2.17;1.75;;;8.20;99.90;;;;;;5028800;28;20706;-91
2021/12/26 18:43:43;;;;;;;4.90;1.92;;;8.20;99.90;;;;;;5013326;28;20037;-91
2021/12/26 18:46:09;;;;;;;1.90;1.50;;;8.20;99.90;;;;;;5041335;28;20033;-92
2021/12/26 18:48:34;;;;;;;2.10;1.90;;;8.30;99.90;;;;;;5034043;28;20021;-91
2021/12/26 18:51:00;;;;;;;2.08;1.77;;;8.30;99.90;;;;;;5042126;28;20044;-91
2021/12/26 18:53:38;;;;;;;3.08;2.10;;;8.30;99.90;;;;;;5051311;28;20029;-90